| time (UTC) | temp F | wind direction | speed MPH | gust MPH | rain 1hr in | rain 24hr in | rain mn in | humidity % | barometer mb |
| 20260510204538 | 75 | 215 | 4.0 | 11.0 | 0.00 | 0.00 | 0.00 | 46 | 1017.0 |
| 20260510203044 | 74 | 215 | 4.0 | 13.0 | 0.00 | 0.00 | 0.00 | 46 | 1017.1 |
| 20260510201545 | 73 | 139 | 3.0 | 13.0 | 0.00 | 0.00 | 0.00 | 47 | 1017.1 |
| 20260510200038 | 73 | 269 | 2.0 | 10.0 | 0.00 | 0.00 | 0.00 | 50 | 1017.1 |
| 20260510194535 | 72 | 192 | 5.0 | 10.0 | 0.00 | 0.00 | 0.00 | 50 | 1017.3 |
| 20260510193036 | 71 | 211 | 3.0 | 11.0 | 0.00 | 0.00 | 0.00 | 50 | 1017.4 |
| 20260510191535 | 70 | 224 | 6.0 | 11.0 | 0.00 | 0.00 | 0.00 | 52 | 1017.5 |
| 20260510190042 | 70 | 206 | 4.0 | 12.0 | 0.00 | 0.00 | 0.00 | 54 | 1017.7 |
| 20260510184541 | 69 | 127 | 5.0 | 12.0 | 0.00 | 0.00 | 0.00 | 55 | 1017.8 |
| 20260510183038 | 69 | 212 | 1.0 | 12.0 | 0.00 | 0.00 | 0.00 | 57 | 1017.7 |
| 20260510181602 | 68 | 188 | 4.0 | 13.0 | 0.00 | 0.00 | 0.00 | 58 | 1017.6 |
| 20260510180100 | 67 | 144 | 4.0 | 10.0 | 0.00 | 0.00 | 0.00 | 59 | 1017.6 |
| 20260510174543 | 66 | 157 | 2.0 | 9.0 | 0.00 | 0.00 | 0.00 | 61 | 1017.8 |
| 20260510173038 | 65 | 148 | 2.0 | 11.0 | 0.00 | 0.00 | 0.00 | 62 | 1017.7 |
| 20260510171545 | 64 | 192 | 3.0 | 13.0 | 0.00 | 0.00 | 0.00 | 65 | 1017.7 |
| 20260510170043 | 63 | 146 | 2.0 | 12.0 | 0.00 | 0.00 | 0.00 | 66 | 1017.7 |
| 20260510164545 | 62 | 123 | 4.0 | 9.0 | 0.00 | 0.00 | 0.00 | 67 | 1017.7 |
| 20260510163042 | 62 | 186 | 2.0 | 7.0 | 0.00 | 0.00 | 0.00 | 69 | 1017.6 |
| 20260510161544 | 62 | 167 | 2.0 | 7.0 | 0.00 | 0.00 | 0.00 | 69 | 1017.5 |
| 20260510160040 | 61 | 171 | 1.0 | 3.0 | 0.00 | 0.00 | 0.00 | 71 | 1017.3 |
| 20260510154537 | 60 | 0 | 0.0 | 4.0 | 0.00 | 0.00 | 0.00 | 72 | 1017.2 |
| 20260510153046 | 60 | 0 | 1.0 | 6.0 | 0.00 | 0.00 | 0.00 | 72 | 1017.2 |
| 20260510151546 | 59 | 113 | 0.0 | 5.0 | 0.00 | 0.00 | 0.00 | 75 | 1017.0 |
| 20260510150104 | 57 | 95 | 0.0 | 3.0 | 0.00 | 0.00 | 0.00 | 80 | 1017.0 |
| 20260510144552 | 53 | 206 | 0.0 | 3.0 | 0.00 | 0.00 | 0.00 | 87 | 1017.1 |
| 20260510143038 | 52 | 0 | 0.0 | 0.0 | 0.00 | 0.00 | 0.00 | 91 | 1017.1 |
| 20260510141544 | 51 | 0 | 0.0 | 1.0 | 0.00 | 0.00 | 0.00 | 90 | 1017.0 |
| 20260510140042 | 51 | 0 | 0.0 | 0.0 | 0.00 | 0.00 | 0.00 | 90 | 1016.9 |
| 20260510134545 | 51 | 0 | 0.0 | 0.0 | 0.00 | 0.00 | 0.00 | 90 | 1016.7 |
| 20260510133036 | 51 | 0 | 0.0 | 1.0 | 0.00 | 0.00 | 0.00 | 90 | 1016.6 |
| 20260510131544 | 51 | 0 | 0.0 | 0.0 | 0.00 | 0.00 | 0.00 | 89 | 1016.5 |
| 20260510130045 | 51 | 0 | 0.0 | 1.0 | 0.00 | 0.00 | 0.00 | 89 | 1016.3 |
| 20260510124542 | 51 | 0 | 0.0 | 1.0 | 0.00 | 0.00 | 0.00 | 89 | 1016.3 |
| 20260510123043 | 51 | 24 | 0.0 | 1.0 | 0.00 | 0.00 | 0.00 | 88 | 1016.3 |
| 20260510121536 | 52 | 0 | 0.0 | 1.0 | 0.00 | 0.00 | 0.00 | 88 | 1016.2 |
| 20260510120035 | 52 | 0 | 0.0 | 0.0 | 0.00 | 0.00 | 0.00 | 87 | 1016.2 |
| 20260510114539 | 53 | 0 | 0.0 | 0.0 | 0.00 | 0.00 | 0.00 | 87 | 1016.3 |
| 20260510113043 | 53 | 0 | 0.0 | 0.0 | 0.00 | 0.00 | 0.00 | 87 | 1016.3 |
| 20260510111546 | 52 | 0 | 0.0 | 1.0 | 0.00 | 0.00 | 0.00 | 87 | 1016.0 |
| 20260510110042 | 53 | 0 | 0.0 | 0.0 | 0.00 | 0.00 | 0.00 | 86 | 1015.9 |
| 20260510104535 | 54 | 24 | 0.0 | 1.0 | 0.00 | 0.00 | 0.00 | 85 | 1015.8 |
| 20260510103039 | 54 | 0 | 0.0 | 2.0 | 0.00 | 0.00 | 0.00 | 85 | 1015.8 |
| 20260510101545 | 54 | 0 | 0.0 | 2.0 | 0.00 | 0.00 | 0.00 | 85 | 1015.6 |
| 20260510100045 | 54 | 0 | 0.0 | 1.0 | 0.00 | 0.00 | 0.00 | 85 | 1015.6 |
| 20260510094545 | 54 | 24 | 0.0 | 2.0 | 0.00 | 0.00 | 0.00 | 84 | 1015.5 |
| 20260510093036 | 55 | 0 | 0.0 | 1.0 | 0.00 | 0.00 | 0.00 | 83 | 1015.6 |
| 20260510091545 | 56 | 0 | 0.0 | 0.0 | 0.00 | 0.00 | 0.00 | 82 | 1015.5 |
| 20260510090045 | 56 | 0 | 0.0 | 0.0 | 0.00 | 0.00 | 0.00 | 82 | 1015.4 |
| 20260510084543 | 56 | 0 | 0.0 | 0.0 | 0.00 | 0.00 | 0.00 | 80 | 1015.6 |
| 20260510083051 | 57 | 0 | 0.0 | 0.0 | 0.00 | 0.00 | 0.00 | 79 | 1015.8 |
| 20260510081541 | 57 | 0 | 0.0 | 0.0 | 0.00 | 0.00 | 0.00 | 79 | 1015.8 |
| 20260510080042 | 57 | 0 | 0.0 | 0.0 | 0.00 | 0.00 | 0.00 | 78 | 1015.6 |
| 20260510074536 | 58 | 0 | 0.0 | 0.0 | 0.00 | 0.00 | 0.00 | 77 | 1015.6 |
| 20260510073051 | 59 | 0 | 0.0 | 0.0 | 0.00 | 0.00 | 0.00 | 76 | 1015.5 |
| 20260510071540 | 59 | 0 | 0.0 | 1.0 | 0.00 | 0.00 | 0.00 | 75 | 1015.3 |
| 20260510070040 | 60 | 0 | 0.0 | 2.0 | 0.00 | 0.00 | 0.00 | 74 | 1015.1 |
| 20260510064537 | 60 | 0 | 0.0 | 1.0 | 0.00 | 0.00 | 0.00 | 71 | 1015.1 |
| 20260510063044 | 61 | 0 | 0.0 | 0.0 | 0.00 | 0.00 | 0.00 | 70 | 1015.2 |
| 20260510061543 | 62 | 0 | 0.0 | 1.0 | 0.00 | 0.00 | 0.00 | 68 | 1015.2 |
| 20260510060046 | 63 | 0 | 0.0 | 1.0 | 0.00 | 0.00 | 0.00 | 67 | 1015.1 |
| 20260510054540 | 64 | 0 | 0.0 | 1.0 | 0.00 | 0.00 | 0.00 | 66 | 1015.2 |
| 20260510053042 | 65 | 0 | 0.0 | 2.0 | 0.00 | 0.00 | 0.00 | 66 | 1015.2 |
| 20260510051543 | 66 | 0 | 0.0 | 2.0 | 0.00 | 0.00 | 0.00 | 60 | 1015.1 |
| 20260510050038 | 67 | 22 | 0.0 | 1.0 | 0.00 | 0.00 | 0.00 | 63 | 1015.1 |
| 20260510044536 | 69 | 0 | 0.0 | 2.0 | 0.00 | 0.00 | 0.00 | 59 | 1014.8 |
| 20260510043036 | 71 | 61 | 1.0 | 3.0 | 0.00 | 0.00 | 0.00 | 52 | 1014.6 |
| 20260510041544 | 72 | 50 | 1.0 | 2.0 | 0.00 | 0.00 | 0.00 | 49 | 1014.3 |
| 20260510040041 | 72 | 49 | 0.0 | 2.0 | 0.00 | 0.00 | 0.00 | 51 | 1014.2 |
| 20260510034540 | 74 | 0 | 0.0 | 2.0 | 0.00 | 0.00 | 0.00 | 54 | 1013.8 |
| 20260510033035 | 75 | 49 | 1.0 | 2.0 | 0.00 | 0.00 | 0.00 | 47 | 1013.6 |
| 20260510031543 | 75 | 49 | 0.0 | 2.0 | 0.00 | 0.00 | 0.00 | 47 | 1013.3 |
| 20260510030052 | 77 | 49 | 0.0 | 2.0 | 0.00 | 0.00 | 0.00 | 45 | 1013.1 |
| 20260510024542 | 79 | 49 | 0.0 | 3.0 | 0.00 | 0.00 | 0.00 | 41 | 1012.8 |
| 20260510023044 | 80 | 275 | 1.0 | 2.0 | 0.00 | 0.00 | 0.00 | 39 | 1012.6 |
| 20260510021544 | 84 | 0 | 0.0 | 3.0 | 0.00 | 0.00 | 0.00 | 40 | 1012.5 |
| 20260510020044 | 87 | 268 | 0.0 | 3.0 | 0.00 | 0.00 | 0.00 | 37 | 1012.4 |
| 20260510014542 | 89 | 194 | 1.0 | 3.0 | 0.00 | 0.00 | 0.00 | 26 | 1012.3 |
| 20260510013038 | 88 | 270 | 0.0 | 3.0 | 0.00 | 0.00 | 0.00 | 31 | 1012.4 |
| 20260510011547 | 88 | 298 | 2.0 | 5.0 | 0.00 | 0.00 | 0.00 | 27 | 1012.5 |
| 20260510010043 | 88 | 188 | 2.0 | 9.0 | 0.00 | 0.00 | 0.00 | 24 | 1012.8 |
| 20260510004547 | 88 | 174 | 2.0 | 9.0 | 0.00 | 0.00 | 0.00 | 25 | 1012.9 |
| 20260510003040 | 88 | 205 | 1.0 | 6.0 | 0.00 | 0.00 | 0.00 | 26 | 1012.8 |
| 20260510001537 | 88 | 207 | 2.0 | 6.0 | 0.00 | 0.00 | 0.00 | 27 | 1012.8 |
| 20260510000044 | 88 | 194 | 2.0 | 7.0 | 0.00 | 0.00 | 0.00 | 25 | 1012.9 |
| 20260509234543 | 88 | 188 | 3.0 | 8.0 | 0.00 | 0.00 | 0.00 | 24 | 1013.0 |
| 20260509233040 | 89 | 200 | 2.0 | 6.0 | 0.00 | 0.00 | 0.00 | 27 | 1013.0 |
| 20260509231540 | 88 | 195 | 1.0 | 6.0 | 0.00 | 0.00 | 0.00 | 21 | 1013.3 |
| 20260509230047 | 88 | 198 | 2.0 | 6.0 | 0.00 | 0.00 | 0.00 | 22 | 1013.4 |
| 20260509224543 | 87 | 213 | 1.0 | 5.0 | 0.00 | 0.00 | 0.00 | 24 | 1013.6 |
| 20260509223036 | 86 | 234 | 2.0 | 4.0 | 0.00 | 0.00 | 0.00 | 28 | 1014.0 |
| 20260509221535 | 85 | 198 | 1.0 | 5.0 | 0.00 | 0.00 | 0.00 | 32 | 1014.1 |
| 20260509220043 | 84 | 177 | 2.0 | 6.0 | 0.00 | 0.00 | 0.00 | 31 | 1014.2 |
| 20260509214541 | 85 | 244 | 1.0 | 4.0 | 0.00 | 0.00 | 0.00 | 31 | 1014.6 |
| 20260509213038 | 84 | 189 | 0.0 | 4.0 | 0.00 | 0.00 | 0.00 | 36 | 1014.8 |
| 20260509211545 | 83 | 88 | 1.0 | 4.0 | 0.00 | 0.00 | 0.00 | 27 | 1015.1 |
| 20260509210059 | 82 | 313 | 2.0 | 4.0 | 0.00 | 0.00 | 0.00 | 29 | 1015.3 |